Time;durP1;ratioP1;P1;durP2;ratioP2;P2;SDS_P1;SDS_P2;PMS_P1;PMS_P2;Temp;Humidity;BMP_temperature;BMP_pressure;BME280_temperature;BME280_humidity;BME280_pressure;Samples;Min_cycle;Max_cycle;Signal;HPM_P1;HPM_P2
2021/04/24 00:02:21;;;;;;;34.05;16.50;;;;;;;4.13;84.59;100664.53;1717036;81;21192;-82
2021/04/24 00:04:49;;;;;;;31.87;14.80;;;;;;;4.14;84.60;100664.91;1720399;81;21088;-81
2021/04/24 00:07:14;;;;;;;30.52;15.18;;;;;;;4.10;84.57;100672.58;1717471;82;21641;-85
2021/04/24 00:09:41;;;;;;;34.00;15.93;;;;;;;4.18;84.17;100666.39;1721194;83;23405;-83
2021/04/24 00:12:09;;;;;;;37.28;16.52;;;;;;;4.04;84.49;100665.14;1714515;81;21685;-81
2021/04/24 00:14:35;;;;;;;33.97;16.03;;;;;;;4.07;84.28;100672.77;1719762;81;21176;-82
2021/04/24 00:17:01;;;;;;;37.17;16.30;;;;;;;4.10;83.93;100662.12;1697110;83;21223;-81
2021/04/24 00:19:27;;;;;;;31.43;15.27;;;;;;;4.15;83.63;100677.05;1715994;83;21504;-81
2021/04/24 00:21:56;;;;;;;32.95;16.02;;;;;;;4.08;83.56;100671.37;1716327;83;21210;-80
2021/04/24 00:24:22;;;;;;;35.17;15.85;;;;;;;4.04;83.73;100662.52;1717411;82;21150;-80
2021/04/24 00:26:49;;;;;;;35.33;16.17;;;;;;;3.91;83.81;100664.64;1716137;81;21350;-80
2021/04/24 00:29:15;;;;;;;41.02;17.27;;;;;;;3.85;84.18;100667.65;1718963;81;27790;-85
2021/04/24 00:31:42;;;;;;;38.17;16.57;;;;;;;3.72;84.70;100666.79;1720850;83;21234;-85
2021/04/24 00:34:07;;;;;;;38.57;16.73;;;;;;;3.66;84.74;100658.05;1718238;81;22050;-83
2021/04/24 00:36:35;;;;;;;32.53;15.80;;;;;;;3.69;84.47;100661.77;1717356;83;21621;-85
2021/04/24 00:39:03;;;;;;;33.25;15.40;;;;;;;3.62;84.32;100658.72;1720243;81;21218;-83
2021/04/24 00:41:31;;;;;;;34.27;15.78;;;;;;;3.75;83.69;100654.84;1715148;82;21103;-84
2021/04/24 00:43:58;;;;;;;;;;;;;;;3.51;84.25;100646.80;1720538;81;22349;-81
2021/04/24 00:46:23;;;;;;;37.70;15.30;;;;;;;3.51;84.13;100652.88;1717316;82;20250;-82
2021/04/24 00:48:51;;;;;;;36.60;15.53;;;;;;;3.45;84.23;100655.88;1699967;83;20924;-82
2021/04/24 00:51:17;;;;;;;;;;;;;;;3.39;84.30;100649.27;1723415;82;21408;-82
2021/04/24 00:53:44;;;;;;;34.00;14.90;;;;;;;3.41;84.12;100652.61;1718757;82;20613;-81
2021/04/24 00:56:11;;;;;;;34.13;15.63;;;;;;;3.39;83.93;100661.02;1718501;82;21177;-83
2021/04/24 00:58:37;;;;;;;;;;;;;;;3.56;83.23;100663.86;1700653;83;21388;-82
2021/04/24 01:01:03;;;;;;;36.10;16.67;;;;;;;3.40;83.58;100668.36;1714415;82;20226;-81
2021/04/24 01:03:29;;;;;;;31.80;14.90;;;;;;;3.55;83.01;100664.78;1719145;81;21947;-83
2021/04/24 01:05:57;;;;;;;36.87;15.57;;;;;;;3.62;82.69;100661.78;1692615;83;21639;-84
2021/04/24 01:08:25;;;;;;;35.30;15.25;;;;;;;3.58;82.23;100668.98;1720440;82;22308;-82
2021/04/24 01:10:51;;;;;;;32.10;15.50;;;;;;;3.54;82.11;100655.30;1720051;81;21201;-81
2021/04/24 01:13:16;;;;;;;36.20;16.50;;;;;;;3.57;81.70;100662.93;1720702;81;21028;-81
2021/04/24 01:15:44;;;;;;;34.63;15.53;;;;;;;3.50;81.69;100662.11;1715889;83;21147;-80
2021/04/24 01:18:11;;;;;;;30.45;13.72;;;;;;;3.52;81.33;100664.98;1718313;83;21627;-81
2021/04/24 01:20:40;;;;;;;36.70;15.08;;;;;;;3.47;81.05;100672.27;1716937;82;21123;-81
2021/04/24 01:23:07;;;;;;;33.02;14.98;;;;;;;3.39;81.14;100666.23;1714840;82;21171;-81
2021/04/24 01:25:35;;;;;;;33.35;14.95;;;;;;;3.33;81.16;100669.70;1720422;82;21279;-84
2021/04/24 01:28:04;;;;;;;32.28;14.47;;;;;;;3.22;81.26;100667.30;1697371;83;21193;-82
2021/04/24 01:30:37;;;;;;;34.75;15.20;;;;;;;3.15;81.30;100664.69;1716304;83;21260;-81
2021/04/24 01:33:08;;;;;;;37.58;15.08;;;;;;;3.11;81.22;100671.05;1718579;82;21177;-82
2021/04/24 01:35:34;;;;;;;37.67;15.40;;;;;;;3.14;81.07;100660.42;1688254;83;21205;-82
2021/04/24 01:38:00;;;;;;;30.10;14.20;;;;;;;3.26;80.32;100659.27;1697991;83;21113;-83
2021/04/24 01:40:28;;;;;;;34.70;15.03;;;;;;;3.07;80.60;100656.50;1720080;81;21940;-80
2021/04/24 01:42:56;;;;;;;34.03;15.70;;;;;;;2.97;80.87;100644.50;1723638;82;21219;-85
2021/04/24 01:45:24;;;;;;;31.35;14.60;;;;;;;2.98;80.86;100657.07;1712383;83;21573;-80
2021/04/24 01:47:50;;;;;;;31.68;13.75;;;;;;;2.97;80.63;100647.59;1666431;83;21186;-82
2021/04/24 01:50:26;;;;;;;27.95;12.85;;;;;;;2.86;79.89;100634.73;1720597;82;21229;-83
2021/04/24 01:52:53;;;;;;;36.20;14.68;;;;;;;2.89;79.24;100637.63;1714825;81;21781;-84
2021/04/24 01:55:22;;;;;;;37.95;14.40;;;;;;;2.89;79.24;100637.63;1719665;81;21191;-83
2021/04/24 01:57:49;;;;;;;39.48;15.00;;;;;;;2.91;79.48;100647.97;1718848;81;21484;-83
2021/04/24 02:00:20;;;;;;;33.30;13.72;;;;;;;2.93;79.45;100651.31;1718370;82;21644;-82
2021/04/24 02:02:45;;;;;;;34.20;14.80;;;;;;;2.96;79.16;100660.25;1688537;83;21156;-80
2021/04/24 02:05:12;;;;;;;29.03;13.53;;;;;;;2.86;79.35;100659.52;1719086;82;21014;-80
2021/04/24 02:07:39;;;;;;;32.13;13.50;;;;;;;2.99;78.73;100657.45;1719447;82;21630;-80
2021/04/24 02:10:11;;;;;;;30.27;13.03;;;;;;;3.03;78.37;100660.23;1716215;82;21114;-80
2021/04/24 02:12:39;;;;;;;29.82;13.35;;;;;;;2.90;78.02;100661.93;1716062;82;21195;-81
2021/04/24 02:15:07;;;;;;;30.05;12.05;;;;;;;2.95;77.87;100657.26;1716660;82;21238;-80
2021/04/24 02:17:33;;;;;;;32.67;13.55;;;;;;;2.99;77.69;100653.54;1721649;81;21488;-80
2021/04/24 02:19:59;;;;;;;29.77;13.50;;;;;;;2.99;77.11;100653.54;1719395;81;21001;-80
2021/04/24 02:22:24;;;;;;;33.00;13.17;;;;;;;3.05;76.87;100660.98;1718072;83;20920;-84
2021/04/24 02:24:56;;;;;;;31.77;12.63;;;;;;;2.98;76.87;100653.16;1706244;83;21081;-82
2021/04/24 02:27:24;;;;;;;31.37;12.58;;;;;;;2.87;76.79;100658.59;1720833;81;21237;-85
2021/04/24 02:29:49;;;;;;;;;;;;;;;2.84;76.78;100663.99;1720696;82;21178;-81
2021/04/24 02:32:15;;;;;;;29.20;12.45;;;;;;;2.95;76.23;100661.17;1716793;82;27753;-81
2021/04/24 02:34:47;;;;;;;35.98;12.70;;;;;;;2.93;75.98;100660.44;1718243;82;21246;-87
2021/04/24 02:37:16;;;;;;;27.48;11.55;;;;;;;2.76;76.46;100670.12;1721692;83;21186;-82
2021/04/24 02:39:46;;;;;;;28.87;12.05;;;;;;;2.71;76.51;100660.92;1717552;81;21177;-83
2021/04/24 02:42:15;;;;;;;29.87;11.65;;;;;;;2.65;76.81;100666.85;1723296;82;23020;-80
2021/04/24 02:44:41;;;;;;;29.45;12.05;;;;;;;2.60;76.47;100665.47;1719482;81;21182;-83
2021/04/24 02:47:08;;;;;;;27.60;12.63;;;;;;;2.57;76.22;100663.05;1717737;82;21132;-83
2021/04/24 02:49:37;;;;;;;30.27;12.05;;;;;;;2.56;76.28;100666.58;1720508;82;22357;-80
2021/04/24 02:52:03;;;;;;;28.32;12.37;;;;;;;2.55;76.10;100646.64;1716722;83;21729;-82
2021/04/24 02:54:31;;;;;;;28.13;10.87;;;;;;;2.55;76.10;100646.64;1718354;81;21247;-80
2021/04/24 02:56:57;;;;;;;25.37;11.40;;;;;;;2.67;75.70;100664.16;1720371;83;21170;-83
2021/04/24 02:59:25;;;;;;;31.65;12.43;;;;;;;2.65;75.21;100649.91;1713709;83;21233;-81
2021/04/24 03:01:50;;;;;;;;;;;;;;;2.65;75.21;100649.91;1720311;82;21685;-81
2021/04/24 03:04:18;;;;;;;30.08;11.65;;;;;;;2.63;75.45;100657.47;1720569;82;20204;-80
2021/04/24 03:06:44;;;;;;;;;;;;;;;2.63;75.45;100657.47;1722015;82;21241;-84
2021/04/24 03:09:10;;;;;;;25.55;10.68;;;;;;;2.58;75.39;100656.88;1719969;81;20408;-80
2021/04/24 03:11:38;;;;;;;25.17;11.00;;;;;;;2.48;75.63;100660.04;1714439;81;21213;-85
2021/04/24 03:14:05;;;;;;;26.23;10.23;;;;;;;2.56;75.32;100661.36;1715573;81;21240;-83
2021/04/24 03:16:32;;;;;;;27.55;11.15;;;;;;;2.51;75.32;100661.64;1715952;82;21225;-80
2021/04/24 03:18:59;;;;;;;32.80;11.88;;;;;;;2.46;75.42;100658.00;1711098;83;21202;-80
2021/04/24 03:21:28;;;;;;;27.90;11.80;;;;;;;2.40;75.41;100660.97;1715650;82;21237;-84
2021/04/24 03:23:55;;;;;;;31.57;11.90;;;;;;;2.45;75.31;100657.62;1717124;82;21209;-84
2021/04/24 03:26:23;;;;;;;28.40;11.65;;;;;;;2.60;74.84;100665.47;1716017;82;21202;-79
2021/04/24 03:28:52;;;;;;;27.85;11.20;;;;;;;2.46;75.13;100664.52;1717449;82;21234;-82
2021/04/24 03:31:21;;;;;;;26.48;11.15;;;;;;;2.50;74.91;100659.95;1715242;82;21158;-82
2021/04/24 03:33:49;;;;;;;32.08;11.57;;;;;;;2.55;75.04;100666.19;1718293;82;21221;-79
2021/04/24 03:36:15;;;;;;;25.77;10.80;;;;;;;2.45;75.10;100671.95;1716732;82;21199;-82
2021/04/24 03:38:42;;;;;;;29.17;11.07;;;;;;;2.62;74.44;100662.30;1716540;82;20958;-81
2021/04/24 03:41:08;;;;;;;27.67;10.93;;;;;;;2.68;74.27;100664.54;1716103;82;21194;-82
2021/04/24 03:43:34;;;;;;;26.55;10.65;;;;;;;2.62;74.03;100672.25;1692759;83;21214;-83
2021/04/24 03:46:00;;;;;;;28.77;12.53;;;;;;;2.62;73.86;100671.42;1721186;81;21606;-80
2021/04/24 03:48:26;;;;;;;27.67;10.40;;;;;;;2.54;74.21;100669.28;1716071;81;21346;-78
2021/04/24 03:50:54;;;;;;;23.87;10.47;;;;;;;2.63;73.93;100671.81;1715179;82;20941;-84
2021/04/24 03:53:22;;;;;;;27.15;10.78;;;;;;;2.58;73.42;100669.92;1715027;82;21198;-79
2021/04/24 03:55:48;;;;;;;;;;;;;;;2.59;73.72;100674.22;1717119;82;21257;-81
2021/04/24 03:58:14;;;;;;;25.02;9.63;;;;;;;2.57;73.70;100680.83;1715612;82;20621;-80
2021/04/24 04:00:41;;;;;;;24.87;10.20;;;;;;;2.62;73.37;100674.86;1692198;83;21008;-79
2021/04/24 04:03:10;;;;;;;28.07;11.35;;;;;;;2.59;73.83;100676.83;1714034;82;21178;-80
2021/04/24 04:05:39;;;;;;;30.55;11.68;;;;;;;2.51;74.02;100677.28;1712854;82;21182;-83
2021/04/24 04:08:07;;;;;;;24.90;11.30;;;;;;;2.51;74.02;100677.28;1712626;81;21289;-81
2021/04/24 04:10:34;;;;;;;21.10;9.50;;;;;;;2.62;73.66;100674.03;1714219;82;21230;-80
2021/04/24 04:13:02;;;;;;;23.00;9.90;;;;;;;2.58;73.32;100678.60;1715181;81;21526;-79
2021/04/24 04:15:28;;;;;;;24.07;9.98;;;;;;;2.61;73.33;100677.56;1713671;82;21228;-81
2021/04/24 04:18:08;;;;;;;23.25;9.48;;;;;;;2.78;72.85;100676.55;1718580;82;21243;-82
2021/04/24 04:20:37;;;;;;;23.07;9.58;;;;;;;2.85;72.67;100678.69;1711948;81;21443;-80
2021/04/24 04:23:02;;;;;;;23.38;9.58;;;;;;;2.88;72.46;100674.59;1715577;83;21227;-80
2021/04/24 04:25:32;;;;;;;25.07;9.97;;;;;;;2.96;72.11;100669.38;1703134;83;20989;-81
2021/04/24 04:28:01;;;;;;;20.35;9.55;;;;;;;3.09;71.74;100669.45;1714999;83;21113;-79
2021/04/24 04:30:27;;;;;;;26.60;8.75;;;;;;;3.13;71.21;100669.17;1716434;82;21105;-79
2021/04/24 04:32:53;;;;;;;20.93;9.33;;;;;;;3.12;71.27;100662.27;1691766;83;21203;-81
2021/04/24 04:35:19;;;;;;;26.20;9.90;;;;;;;3.20;70.81;100667.86;1717143;81;21184;-79
2021/04/24 04:37:48;;;;;;;21.37;9.47;;;;;;;3.28;71.30;100671.75;1720819;83;21209;-84
2021/04/24 04:40:17;;;;;;;26.57;9.33;;;;;;;3.28;71.19;100678.27;1715025;82;21500;-84
2021/04/24 04:42:45;;;;;;;26.12;9.75;;;;;;;3.37;70.57;100677.70;1685171;83;21210;-82
2021/04/24 04:45:15;;;;;;;23.30;9.23;;;;;;;3.27;70.39;100680.05;1720213;83;21227;-82
2021/04/24 04:47:42;;;;;;;22.82;9.60;;;;;;;3.26;70.15;100650.13;1699187;83;21169;-83
2021/04/24 04:50:12;;;;;;;20.17;8.75;;;;;;;3.43;70.24;100676.00;1718278;81;21238;-83
2021/04/24 04:52:41;;;;;;;21.07;8.53;;;;;;;3.42;70.22;100679.57;1710817;82;21280;-84
2021/04/24 04:55:10;;;;;;;22.52;9.33;;;;;;;3.51;69.70;100688.13;1721010;81;21184;-83
2021/04/24 04:57:42;;;;;;;22.15;8.73;;;;;;;3.54;69.45;100680.10;1719016;82;21409;-83
2021/04/24 05:00:11;;;;;;;26.40;8.98;;;;;;;3.52;69.75;100691.09;1719565;81;21200;-86
2021/04/24 05:02:38;;;;;;;18.42;7.97;;;;;;;3.67;68.88;100680.63;1713212;81;21201;-83
2021/04/24 05:05:08;;;;;;;19.25;8.48;;;;;;;3.78;68.77;100692.52;1714379;82;21253;-83
2021/04/24 05:07:34;;;;;;;22.80;9.08;;;;;;;3.85;67.79;100689.86;1719255;83;21235;-83
2021/04/24 05:10:00;;;;;;;22.27;9.30;;;;;;;3.93;67.84;100684.99;1711704;82;21457;-83
2021/04/24 05:12:27;;;;;;;22.90;9.28;;;;;;;3.95;67.35;100694.86;1707401;82;21200;-83
2021/04/24 05:14:53;;;;;;;23.77;9.30;;;;;;;4.05;66.70;100681.20;1696064;83;21195;-84
2021/04/24 05:17:22;;;;;;;21.90;9.63;;;;;;;4.00;66.95;100692.43;1670865;83;22976;-84
2021/04/24 05:19:48;;;;;;;20.05;8.85;;;;;;;4.01;67.15;100688.86;1707883;83;21187;-84
2021/04/24 05:22:14;;;;;;;23.10;9.10;;;;;;;4.19;66.42;100684.20;1683376;83;21249;-86
2021/04/24 05:24:39;;;;;;;19.63;9.30;;;;;;;4.14;66.37;100693.66;1708822;82;20945;-83
2021/04/24 05:27:07;;;;;;;21.47;9.40;;;;;;;4.19;66.38;100695.49;1706890;82;20926;-83
2021/04/24 05:29:33;;;;;;;19.25;8.78;;;;;;;4.21;66.01;100704.09;1712026;82;21618;-83
2021/04/24 05:32:02;;;;;;;19.00;8.80;;;;;;;4.34;65.90;100695.44;1704196;82;24204;-84
2021/04/24 05:34:28;;;;;;;17.32;8.38;;;;;;;4.32;65.06;100707.30;1687685;83;21263;-83
2021/04/24 05:36:56;;;;;;;20.40;9.10;;;;;;;4.41;65.50;100700.16;1703996;83;20969;-85
2021/04/24 05:39:24;;;;;;;21.80;8.58;;;;;;;4.56;64.98;100700.88;1703645;82;21167;-83
2021/04/24 05:41:50;;;;;;;20.85;8.48;;;;;;;4.39;65.10;100703.80;1707683;82;21195;-84
2021/04/24 05:44:16;;;;;;;22.17;9.03;;;;;;;4.55;64.44;100708.34;1711566;83;23822;-83
2021/04/24 05:46:43;;;;;;;21.27;9.00;;;;;;;4.53;64.20;100699.78;1710745;82;21637;-83
2021/04/24 05:49:09;;;;;;;22.82;8.80;;;;;;;4.47;64.30;100698.88;1709666;82;21242;-83
2021/04/24 05:51:35;;;;;;;18.82;8.60;;;;;;;4.63;64.17;100692.99;1707396;82;21171;-84
2021/04/24 05:54:04;;;;;;;19.20;9.10;;;;;;;4.75;63.94;100686.55;1694871;82;24877;-84
2021/04/24 05:56:32;;;;;;;19.70;8.93;;;;;;;4.85;64.09;100696.28;1703941;82;21256;-83
2021/04/24 05:59:00;;;;;;;18.45;8.75;;;;;;;5.02;63.31;100696.91;1701150;82;21347;-82
2021/04/24 06:01:28;;;;;;;16.25;7.80;;;;;;;4.83;63.42;100692.94;1699790;82;22150;-84
2021/04/24 06:03:54;;;;;;;17.25;8.00;;;;;;;4.99;63.09;100690.09;1688078;83;21139;-83
2021/04/24 06:06:23;;;;;;;18.32;8.03;;;;;;;5.16;62.29;100689.40;1708647;83;21617;-82
2021/04/24 06:08:49;;;;;;;16.85;7.62;;;;;;;5.27;62.49;100693.39;1710887;82;21140;-84
2021/04/24 06:11:20;;;;;;;20.97;8.13;;;;;;;5.50;62.30;100694.84;1680245;83;20952;-84
2021/04/24 06:13:50;;;;;;;18.20;8.30;;;;;;;5.62;61.88;100691.33;1698604;81;21650;-83
2021/04/24 06:16:18;;;;;;;16.45;7.97;;;;;;;5.57;61.41;100700.01;1709612;83;21216;-84
2021/04/24 06:18:44;;;;;;;17.20;7.83;;;;;;;5.67;62.09;100700.17;1715818;83;21234;-85
2021/04/24 06:21:13;;;;;;;15.43;7.43;;;;;;;5.73;61.98;100712.83;1701773;83;25236;-84
2021/04/24 06:23:38;;;;;;;16.17;8.03;;;;;;;5.89;62.06;100707.34;1702472;82;21993;-83
2021/04/24 06:26:04;;;;;;;20.73;8.57;;;;;;;5.77;61.68;100718.71;1710584;83;22609;-86
2021/04/24 06:28:30;;;;;;;19.47;8.70;;;;;;;6.00;61.53;100718.37;1700796;82;21012;-83
2021/04/24 06:30:57;;;;;;;18.37;8.18;;;;;;;5.94;61.30;100723.55;1714973;82;27786;-83
2021/04/24 06:33:23;;;;;;;16.80;8.00;;;;;;;5.95;61.23;100723.92;1702984;81;21199;-84
2021/04/24 06:35:48;;;;;;;16.77;7.60;;;;;;;5.82;61.33;100727.06;1703142;83;21166;-83
2021/04/24 06:38:14;;;;;;;16.70;8.10;;;;;;;5.90;61.27;100714.23;1695987;83;24024;-84
2021/04/24 06:40:40;;;;;;;17.63;7.93;;;;;;;6.21;60.95;100723.33;1710931;83;21700;-83
2021/04/24 06:43:06;;;;;;;16.27;8.17;;;;;;;6.07;61.28;100728.27;1712883;81;29198;-84
2021/04/24 06:45:31;;;;;;;17.52;8.35;;;;;;;6.14;61.14;100723.89;1712671;81;27265;-85
2021/04/24 06:47:57;;;;;;;18.87;7.90;;;;;;;6.25;61.12;100720.84;1721813;81;21593;-83
2021/04/24 06:50:23;;;;;;;19.17;8.75;;;;;;;6.34;60.59;100724.58;1717411;81;21653;-82
2021/04/24 06:52:52;;;;;;;18.37;8.53;;;;;;;6.47;60.91;100721.37;1706006;81;21179;-83
2021/04/24 06:55:22;;;;;;;17.17;7.92;;;;;;;6.61;60.34;100719.03;1709378;81;21096;-82
2021/04/24 06:57:49;;;;;;;20.72;8.08;;;;;;;6.42;59.71;100732.70;1693610;82;21642;-83
2021/04/24 07:00:17;;;;;;;18.40;8.23;;;;;;;6.63;59.49;100712.35;1698330;81;21241;-85
2021/04/24 07:02:43;;;;;;;22.52;8.30;;;;;;;6.65;59.40;100705.22;1703322;81;21175;-83
2021/04/24 07:05:12;;;;;;;19.12;7.87;;;;;;;6.77;59.81;100716.55;1698254;81;21275;-84
2021/04/24 07:07:46;;;;;;;19.75;8.08;;;;;;;6.81;59.37;100713.57;1691508;82;21659;-84
2021/04/24 07:10:16;;;;;;;16.17;7.58;;;;;;;6.79;59.67;100712.86;1694063;83;21251;-81
2021/04/24 07:12:47;;;;;;;16.52;7.83;;;;;;;6.72;59.82;100724.77;1696377;83;21399;-83
2021/04/24 07:15:13;;;;;;;14.45;7.03;;;;;;;6.70;60.12;100710.94;1721100;81;21407;-82
2021/04/24 07:17:40;;;;;;;15.93;7.63;;;;;;;6.83;59.76;100702.47;1718899;81;21223;-82
2021/04/24 07:20:10;;;;;;;14.30;7.10;;;;;;;6.92;59.87;100706.19;1716266;82;21157;-82
2021/04/24 07:22:36;;;;;;;15.70;6.70;;;;;;;7.04;59.60;100708.34;1719866;81;21228;-83
2021/04/24 07:25:08;;;;;;;16.67;7.15;;;;;;;6.93;59.44;100706.55;1708410;82;21254;-84
2021/04/24 07:27:33;;;;;;;16.50;7.22;;;;;;;7.19;59.28;100691.39;1717139;83;21176;-82
2021/04/24 07:30:00;;;;;;;18.48;7.30;;;;;;;7.27;59.41;100695.19;1716131;82;21490;-84
2021/04/24 07:32:28;;;;;;;14.25;6.83;;;;;;;7.40;59.43;100709.03;1717015;81;21214;-84
2021/04/24 07:35:01;;;;;;;15.18;6.17;;;;;;;7.60;58.93;100695.61;1715068;82;21741;-84
2021/04/24 07:37:34;;;;;;;14.47;6.03;;;;;;;7.57;57.91;100700.27;1720185;82;21197;-86
2021/04/24 07:39:59;;;;;;;14.18;5.87;;;;;;;7.37;57.54;100700.08;1719000;83;21243;-85
2021/04/24 07:42:30;;;;;;;13.20;5.90;;;;;;;7.43;57.13;100714.53;1720672;82;23882;-84
2021/04/24 07:44:57;;;;;;;12.55;6.00;;;;;;;7.39;57.17;100703.89;1718807;82;21185;-85
2021/04/24 07:47:27;;;;;;;12.03;5.80;;;;;;;7.47;57.41;100707.59;1713448;82;22561;-89
2021/04/24 07:49:58;;;;;;;13.15;5.62;;;;;;;7.78;57.00;100701.16;1719358;82;21339;-86
2021/04/24 07:52:25;;;;;;;12.07;5.90;;;;;;;7.87;54.85;100706.98;1716923;82;21205;-86
2021/04/24 07:54:55;;;;;;;12.25;5.60;;;;;;;7.95;55.79;100710.80;1702180;82;21165;-86
2021/04/24 07:57:25;;;;;;;13.70;5.83;;;;;;;7.86;56.75;100709.74;1720995;81;21844;-83
2021/04/24 07:59:52;;;;;;;11.35;5.70;;;;;;;8.11;56.66;100699.84;1725386;82;21615;-82
2021/04/24 08:02:18;;;;;;;11.48;5.80;;;;;;;7.98;56.52;100706.60;1721179;82;21220;-81
2021/04/24 08:04:44;;;;;;;11.55;5.12;;;;;;;8.00;56.55;100712.56;1719352;82;26986;-86
2021/04/24 08:07:10;;;;;;;12.47;5.75;;;;;;;7.90;56.11;100705.42;1710174;82;25481;-87
2021/04/24 08:09:39;;;;;;;10.98;5.25;;;;;;;7.85;56.62;100705.46;1717645;82;21648;-83
2021/04/24 08:12:06;;;;;;;11.30;5.55;;;;;;;7.82;57.10;100719.69;1690403;83;21203;-83
2021/04/24 08:14:36;;;;;;;13.32;5.15;;;;;;;8.04;57.33;100707.42;1680663;83;21231;-84
2021/04/24 08:17:04;;;;;;;11.93;5.65;;;;;;;8.11;57.63;100719.12;1718265;81;21138;-84
2021/04/24 08:19:29;;;;;;;13.58;5.47;;;;;;;8.34;57.20;100705.84;1713728;83;21198;-80
2021/04/24 08:21:58;;;;;;;10.90;4.87;;;;;;;8.03;58.34;100707.05;1718422;81;28341;-84
2021/04/24 08:24:26;;;;;;;11.00;4.97;;;;;;;7.94;57.09;100717.01;1692453;83;37728;-84
2021/04/24 08:26:54;;;;;;;11.28;5.10;;;;;;;7.95;57.72;100710.80;1720117;83;21642;-84
2021/04/24 08:29:20;;;;;;;;;;;;;;;8.03;58.10;100716.26;1721193;81;21223;-86
2021/04/24 08:31:49;;;;;;;10.45;4.95;;;;;;;8.01;58.28;100734.80;1720479;82;20268;-84
2021/04/24 08:34:17;;;;;;;11.20;5.03;;;;;;;7.76;58.78;100725.44;1717140;81;21273;-85
2021/04/24 08:36:42;;;;;;;8.58;4.67;;;;;;;8.02;58.67;100710.17;1719662;83;21645;-84
2021/04/24 08:39:08;;;;;;;15.20;4.72;;;;;;;8.04;57.22;100719.25;1718500;82;22534;-84
2021/04/24 08:41:36;;;;;;;10.03;4.65;;;;;;;8.30;56.69;100709.67;1719206;83;21195;-84
2021/04/24 08:44:02;;;;;;;;;;;;;;;8.14;56.62;100710.97;1719152;81;21230;-84
2021/04/24 08:46:28;;;;;;;11.00;5.15;;;;;;;8.25;56.79;100712.23;1719640;83;20574;-84
2021/04/24 08:48:54;;;;;;;9.50;4.53;;;;;;;8.32;56.50;100706.45;1719054;81;27282;-84
2021/04/24 08:51:21;;;;;;;9.08;4.33;;;;;;;8.59;56.22;100696.28;1720296;82;21207;-84
2021/04/24 08:53:48;;;;;;;12.03;4.80;;;;;;;8.66;55.70;100716.83;1718066;81;21219;-88
2021/04/24 08:56:14;;;;;;;;;;;;;;;8.49;55.11;100701.95;1720461;82;22129;-84
2021/04/24 08:58:40;;;;;;;8.08;4.10;;;;;;;8.64;55.05;100699.84;1690893;83;20205;-84
2021/04/24 09:01:09;;;;;;;10.38;4.40;;;;;;;8.70;54.45;100714.27;1719646;83;26767;-82
2021/04/24 09:03:34;;;;;;;11.65;4.25;;;;;;;8.66;54.30;100699.71;1719866;82;22135;-83
2021/04/24 09:06:01;;;;;;;8.08;4.08;;;;;;;8.61;53.44;100706.19;1717895;83;28399;-83
2021/04/24 09:08:29;;;;;;;13.80;5.03;;;;;;;8.79;53.78;100692.41;1690920;83;21196;-83
2021/04/24 09:10:58;;;;;;;7.75;3.30;;;;;;;8.88;53.61;100703.48;1719395;82;21198;-83
2021/04/24 09:13:25;;;;;;;8.48;3.62;;;;;;;8.90;52.78;100693.67;1700397;83;21239;-82
2021/04/24 09:15:52;;;;;;;10.32;4.15;;;;;;;9.32;52.50;100700.12;1701166;82;21281;-82
2021/04/24 09:18:18;;;;;;;9.85;3.95;;;;;;;9.32;53.26;100689.58;1717115;82;21152;-83
2021/04/24 09:20:55;;;;;;;8.68;3.92;;;;;;;9.20;51.60;100690.66;1697877;81;21674;-83
2021/04/24 09:23:29;;;;;;;9.75;3.83;;;;;;;9.21;49.52;100696.25;1719183;82;21229;-83
2021/04/24 09:26:04;;;;;;;8.48;3.95;;;;;;;9.14;50.26;100713.59;1712741;81;22223;-87
2021/04/24 09:28:45;;;;;;;8.30;3.77;;;;;;;8.94;51.78;100712.17;1714088;83;21144;-88
2021/04/24 09:31:17;;;;;;;7.90;3.77;;;;;;;8.96;50.04;100711.58;1719695;82;21236;-86
2021/04/24 09:33:52;;;;;;;7.30;3.42;;;;;;;9.11;50.99;100695.41;1695839;82;21208;-84
2021/04/24 09:36:18;;;;;;;7.67;3.52;;;;;;;9.37;49.67;100680.42;1697393;83;21233;-82
2021/04/24 09:38:49;;;;;;;8.60;3.50;;;;;;;9.40;49.27;100680.15;1719346;82;26729;-82
2021/04/24 09:41:25;;;;;;;9.78;4.03;;;;;;;9.18;50.22;100685.98;1720384;82;21822;-83
2021/04/24 09:43:57;;;;;;;8.68;3.60;;;;;;;9.28;48.49;100690.81;1714942;82;21090;-83
2021/04/24 09:46:38;;;;;;;7.72;3.55;;;;;;;9.62;49.42;100672.02;1714826;81;21178;-86
2021/04/24 09:49:24;;;;;;;10.20;4.15;;;;;;;9.84;49.09;100660.86;1719331;82;21613;-83
2021/04/24 09:52:01;;;;;;;7.60;3.37;;;;;;;9.89;48.74;100663.41;1714725;81;21668;-86
2021/04/24 09:54:47;;;;;;;7.23;2.90;;;;;;;9.95;47.57;100677.86;1696270;82;21248;-83
2021/04/24 09:57:19;;;;;;;5.12;2.95;;;;;;;9.84;44.86;100656.90;1716928;82;22328;-84
2021/04/24 09:59:59;;;;;;;8.43;3.30;;;;;;;10.18;46.04;100654.65;1721263;81;21023;-83
2021/04/24 10:02:38;;;;;;;9.28;3.37;;;;;;;10.11;45.55;100659.31;1695907;81;21216;-84
2021/04/24 10:05:15;;;;;;;6.12;2.95;;;;;;;10.11;44.53;100654.03;1718022;82;21155;-83
2021/04/24 10:07:47;;;;;;;6.20;2.77;;;;;;;10.21;43.03;100659.64;1720320;83;21728;-81
2021/04/24 10:10:36;;;;;;;6.42;3.33;;;;;;;10.59;42.83;100646.52;1718272;82;21237;-82
2021/04/24 10:13:04;;;;;;;5.65;2.80;;;;;;;10.49;42.87;100651.02;1719604;81;21223;-82
2021/04/24 10:15:39;;;;;;;4.97;2.42;;;;;;;10.47;40.25;100633.14;1716580;82;21153;-82
2021/04/24 10:18:08;;;;;;;6.67;2.70;;;;;;;10.58;40.03;100634.28;1719494;82;21099;-83
2021/04/24 10:20:35;;;;;;;5.60;2.52;;;;;;;10.51;39.10;100648.56;1716048;83;21659;-81
2021/04/24 10:23:02;;;;;;;5.20;2.45;;;;;;;10.40;38.92;100633.72;1722134;81;21250;-83
2021/04/24 10:25:29;;;;;;;4.50;2.58;;;;;;;10.57;38.76;100640.56;1716692;82;22376;-85
2021/04/24 10:27:56;;;;;;;7.35;2.80;;;;;;;10.35;40.94;100646.52;1714253;82;21252;-88
2021/04/24 10:30:22;;;;;;;6.03;2.80;;;;;;;10.45;41.86;100638.57;1717757;83;21151;-83
2021/04/24 10:32:48;;;;;;;5.43;2.83;;;;;;;10.34;41.25;100649.30;1722416;83;21204;-86
2021/04/24 10:35:15;;;;;;;10.90;2.95;;;;;;;10.37;41.43;100635.32;1717145;82;21686;-87
2021/04/24 10:37:50;;;;;;;4.67;3.00;;;;;;;10.56;41.07;100630.47;1714561;82;21222;-81
2021/04/24 10:40:19;;;;;;;6.60;3.00;;;;;;;10.48;41.37;100622.94;1720106;82;21286;-82
2021/04/24 10:42:56;;;;;;;6.28;2.72;;;;;;;10.66;40.94;100621.67;1718508;82;21174;-84
2021/04/24 10:45:33;;;;;;;7.70;2.83;;;;;;;10.96;40.94;100613.98;1721912;81;21218;-82
2021/04/24 10:47:59;;;;;;;;;;;;;;;10.91;39.83;100623.66;1721919;81;21594;-81
2021/04/24 10:50:47;;;;;;;4.33;2.10;;;;;;;11.08;36.62;100614.62;1720372;81;25593;-83
2021/04/24 10:53:28;;;;;;;6.12;3.20;;;;;;;11.19;35.43;100626.80;1718112;82;21241;-86
2021/04/24 10:56:00;;;;;;;3.92;2.27;;;;;;;10.98;37.11;100616.47;1720917;81;21205;-84
2021/04/24 10:58:29;;;;;;;5.05;2.25;;;;;;;10.82;38.04;100647.50;1718464;81;21987;-83
2021/04/24 11:00:57;;;;;;;5.37;2.47;;;;;;;10.61;37.12;100627.39;1692050;83;21649;-85
2021/04/24 11:03:42;;;;;;;6.83;3.20;;;;;;;10.35;37.85;100622.77;1709521;83;21178;-82
2021/04/24 11:06:23;;;;;;;7.45;3.47;;;;;;;10.26;43.12;100635.47;1718813;82;21625;-81
2021/04/24 11:08:51;;;;;;;8.43;3.20;;;;;;;10.30;46.56;100624.98;1717330;82;21625;-86
2021/04/24 11:11:21;;;;;;;6.58;3.37;;;;;;;10.43;46.35;100629.15;1719781;81;21374;-81
2021/04/24 11:13:54;;;;;;;7.33;3.12;;;;;;;10.41;46.25;100639.35;1721752;82;21198;-82
2021/04/24 11:16:20;;;;;;;7.30;3.62;;;;;;;10.59;45.55;100639.92;1702814;82;21236;-82
2021/04/24 11:18:49;;;;;;;7.17;3.50;;;;;;;10.04;46.80;100649.31;1721000;81;21277;-82
2021/04/24 11:21:27;;;;;;;9.43;3.45;;;;;;;9.96;45.92;100654.47;1717758;82;21194;-79
2021/04/24 11:23:59;;;;;;;4.22;2.40;;;;;;;10.13;44.81;100645.48;1722702;82;21261;-83
2021/04/24 11:26:39;;;;;;;5.17;2.40;;;;;;;10.33;42.05;100623.41;1726800;81;21215;-82
2021/04/24 11:29:21;;;;;;;5.80;2.37;;;;;;;10.25;41.72;100643.03;1722221;81;21177;-82
2021/04/24 11:32:02;;;;;;;4.40;2.10;;;;;;;10.29;39.14;100637.82;1721942;81;21202;-83
2021/04/24 11:34:40;;;;;;;6.10;2.60;;;;;;;10.29;35.58;100654.16;1722653;81;21330;-80